Time;durP1;ratioP1;P1;durP2;ratioP2;P2;SDS_P1;SDS_P2;PMS_P1;PMS_P2;Temp;Humidity;BMP_temperature;BMP_pressure;BME280_temperature;BME280_humidity;BME280_pressure;Samples;Min_cycle;Max_cycle;Signal;HPM_P1;HPM_P2
2022/11/29 04:01:06;;;;;;;0.70;0.70;;;9.50;88.40;;;;;;6034174;23;20372;-73
2022/11/29 04:03:56;;;;;;;0.60;0.60;;;9.50;88.40;;;;;;4957203;29;20990;-73
2022/11/29 04:06:39;;;;;;;0.70;0.70;;;9.40;88.50;;;;;;4957311;29;20424;-73
2022/11/29 04:09:45;;;;;;;0.70;0.70;;;9.40;88.60;;;;;;4957274;29;20427;-73
2022/11/29 04:12:37;;;;;;;0.67;0.67;;;9.50;88.60;;;;;;4897771;29;20474;-73
2022/11/29 04:15:50;;;;;;;0.80;0.80;;;9.50;88.60;;;;;;4958298;29;20454;-73
2022/11/29 04:18:57;;;;;;;0.60;0.60;;;9.50;88.40;;;;;;4956899;29;20443;-72
2022/11/29 04:21:33;;;;;;;0.70;0.70;;;9.60;88.40;;;;;;4956775;29;20467;-72
2022/11/29 04:24:37;;;;;;;0.70;0.70;;;9.50;88.30;;;;;;4956807;29;20431;-71
2022/11/29 04:27:37;;;;;;;0.60;0.60;;;9.50;88.50;;;;;;4956946;29;20427;-73
2022/11/29 04:30:09;;;;;;;0.67;0.67;;;9.50;88.60;;;;;;4946532;29;20554;-72
2022/11/29 04:33:00;;;;;;;0.70;0.70;;;9.60;88.50;;;;;;4956264;29;20474;-72
2022/11/29 04:35:37;;;;;;;0.60;0.60;;;9.50;88.40;;;;;;4956450;29;20486;-72
2022/11/29 04:38:38;;;;;;;0.70;0.70;;;9.50;88.40;;;;;;4956309;29;20807;-72
2022/11/29 04:41:22;;;;;;;0.60;0.60;;;9.60;88.50;;;;;;4956400;29;20478;-72
2022/11/29 04:44:11;;;;;;;0.60;0.60;;;9.50;88.50;;;;;;4956040;28;20439;-73
2022/11/29 04:46:55;;;;;;;0.60;0.60;;;9.50;88.80;;;;;;4956260;29;20791;-72
2022/11/29 04:49:49;;;;;;;0.70;0.70;;;9.50;88.70;;;;;;4956409;29;20436;-72
2022/11/29 04:52:45;;;;;;;0.67;0.67;;;9.50;88.60;;;;;;4956183;29;20482;-73
2022/11/29 04:55:22;;;;;;;0.60;0.60;;;9.40;88.60;;;;;;4956275;29;20436;-72
2022/11/29 04:57:54;;;;;;;0.60;0.60;;;9.30;89.30;;;;;;4956218;29;20556;-72
2022/11/29 05:00:23;;;;;;;0.60;0.60;;;9.20;89.90;;;;;;4955759;29;20440;-73
2022/11/29 05:02:55;;;;;;;0.60;0.60;;;9.30;89.90;;;;;;4955948;29;20470;-72
2022/11/29 05:05:30;;;;;;;0.60;0.60;;;9.30;89.80;;;;;;4956038;29;20839;-72
2022/11/29 05:08:11;;;;;;;0.60;0.60;;;9.40;89.50;;;;;;4955934;29;20431;-72
2022/11/29 05:10:44;;;;;;;0.60;0.60;;;9.40;89.50;;;;;;4955801;29;20436;-71
2022/11/29 05:13:18;;;;;;;0.70;0.70;;;9.40;89.10;;;;;;4955907;29;20436;-72
2022/11/29 05:15:58;;;;;;;0.57;0.57;;;9.40;89.70;;;;;;4955696;29;20470;-72
2022/11/29 05:18:45;;;;;;;0.60;0.60;;;9.30;89.50;;;;;;4955773;29;20443;-72
2022/11/29 05:21:19;;;;;;;0.60;0.60;;;9.30;89.80;;;;;;4955718;29;20475;-72
2022/11/29 05:23:59;;;;;;;0.60;0.60;;;9.40;89.60;;;;;;4955650;29;20912;-72
2022/11/29 05:26:32;;;;;;;0.60;0.60;;;9.40;89.40;;;;;;4955882;29;20431;-72
2022/11/29 05:29:04;;;;;;;0.60;0.60;;;9.40;89.70;;;;;;4955693;29;20435;-72
2022/11/29 05:31:50;;;;;;;0.70;0.60;;;9.40;89.50;;;;;;4955633;29;20504;-71
2022/11/29 05:34:47;;;;;;;0.60;0.60;;;9.40;89.40;;;;;;4955634;29;20447;-72
2022/11/29 05:37:24;;;;;;;0.60;0.60;;;9.30;89.70;;;;;;4955568;29;20471;-72
2022/11/29 05:40:09;;;;;;;0.60;0.60;;;9.40;89.70;;;;;;4955596;29;20446;-71
2022/11/29 05:42:50;;;;;;;0.67;0.67;;;9.40;89.50;;;;;;4955433;29;20522;-72
2022/11/29 05:45:24;;;;;;;0.57;0.57;;;9.20;89.50;;;;;;4955474;29;20903;-71
2022/11/29 05:47:57;;;;;;;0.60;0.60;;;9.20;90.10;;;;;;4955566;29;20427;-72
2022/11/29 05:50:30;;;;;;;0.60;0.60;;;9.20;90.20;;;;;;4955423;29;20435;-72
2022/11/29 05:53:02;;;;;;;0.50;0.50;;;9.30;90.00;;;;;;4955757;29;20443;-72
2022/11/29 05:55:40;;;;;;;0.77;0.77;;;9.20;89.70;;;;;;4956711;28;20439;-70
2022/11/29 05:58:13;;;;;;;0.60;0.60;;;9.30;90.00;;;;;;4959461;29;20443;-72
2022/11/29 06:00:47;;;;;;;0.60;0.60;;;9.30;89.70;;;;;;4959413;29;20443;-70
2022/11/29 06:03:21;;;;;;;0.70;0.70;;;9.40;89.70;;;;;;4959547;29;20817;-72
2022/11/29 06:05:52;;;;;;;0.60;0.60;;;9.40;89.60;;;;;;4959536;29;20435;-72
2022/11/29 06:08:28;;;;;;;0.93;0.50;;;9.50;89.50;;;;;;4959255;29;20446;-71
2022/11/29 06:11:04;;;;;;;0.60;0.60;;;9.50;89.30;;;;;;4959077;29;20565;-71
2022/11/29 06:13:42;;;;;;;0.63;0.63;;;9.50;89.40;;;;;;4959119;29;20474;-72
2022/11/29 06:16:34;;;;;;;0.60;0.60;;;9.50;89.30;;;;;;4959001;29;20847;-72
2022/11/29 06:19:24;;;;;;;0.67;0.67;;;9.60;89.20;;;;;;4959018;29;20435;-74
2022/11/29 06:22:01;;;;;;;0.60;0.60;;;9.60;89.00;;;;;;4959836;29;20478;-73
2022/11/29 06:24:49;;;;;;;0.60;0.60;;;9.60;88.80;;;;;;4959236;29;20439;-73
2022/11/29 06:27:37;;;;;;;0.70;0.70;;;9.70;88.70;;;;;;4959768;29;20435;-74
2022/11/29 06:30:08;;;;;;;0.70;0.70;;;9.60;88.60;;;;;;4959791;29;20454;-73
2022/11/29 06:32:45;;;;;;;0.60;0.60;;;9.60;88.70;;;;;;4959344;29;20503;-73
2022/11/29 06:35:25;;;;;;;0.70;0.70;;;9.60;88.60;;;;;;4960194;29;20440;-74
2022/11/29 06:37:55;;;;;;;0.60;0.60;;;9.60;88.60;;;;;;4959656;29;20534;-74
2022/11/29 06:40:23;;;;;;;0.60;0.60;;;9.60;88.60;;;;;;4959060;29;20938;-74
2022/11/29 06:42:51;;;;;;;0.70;0.70;;;9.60;88.60;;;;;;4959196;29;20451;-73
2022/11/29 06:45:20;;;;;;;0.60;0.60;;;9.60;88.80;;;;;;4959402;29;20447;-73
2022/11/29 06:47:52;;;;;;;0.60;0.60;;;9.70;88.70;;;;;;4959575;29;20502;-74
2022/11/29 06:50:35;;;;;;;0.67;0.67;;;9.70;88.50;;;;;;4959396;29;20439;-74
2022/11/29 06:53:11;;;;;;;0.60;0.60;;;9.70;88.40;;;;;;4958644;29;20930;-74
2022/11/29 06:55:47;;;;;;;0.60;0.60;;;9.70;88.60;;;;;;4959126;29;20816;-73
2022/11/29 06:58:31;;;;;;;0.70;0.70;;;9.70;88.60;;;;;;4959255;29;20446;-74
2022/11/29 07:01:04;;;;;;;0.80;0.80;;;9.70;88.50;;;;;;4957805;29;20565;-72
2022/11/29 07:03:51;;;;;;;0.80;0.80;;;9.80;88.50;;;;;;4957839;29;20942;-72
2022/11/29 07:06:22;;;;;;;0.77;0.77;;;9.80;88.40;;;;;;4957739;28;20435;-72
2022/11/29 07:08:53;;;;;;;0.90;0.90;;;9.80;88.30;;;;;;4957936;29;20435;-72
2022/11/29 07:11:20;;;;;;;0.80;0.80;;;9.80;88.40;;;;;;4958860;29;20467;-72
2022/11/29 07:13:49;;;;;;;0.80;0.80;;;9.70;88.60;;;;;;4957847;29;21044;-73
2022/11/29 07:16:24;;;;;;;0.70;0.70;;;9.80;88.60;;;;;;4957482;29;20859;-72
2022/11/29 07:19:00;;;;;;;0.63;0.63;;;9.80;88.40;;;;;;4957862;29;20435;-72
2022/11/29 07:21:39;;;;;;;0.80;0.80;;;9.90;88.30;;;;;;4957740;29;20533;-72
2022/11/29 07:24:14;;;;;;;0.70;0.70;;;9.90;88.30;;;;;;4957891;29;20435;-72
2022/11/29 07:26:51;;;;;;;0.60;0.60;;;9.90;88.10;;;;;;4957939;29;20439;-73
2022/11/29 07:29:29;;;;;;;0.50;0.50;;;9.90;88.20;;;;;;4958087;29;20467;-73
2022/11/29 07:32:05;;;;;;;0.67;0.67;;;9.90;88.30;;;;;;4958044;29;20482;-72
2022/11/29 07:34:40;;;;;;;0.70;0.70;;;9.90;88.50;;;;;;4958072;29;20443;-72
2022/11/29 07:37:15;;;;;;;0.70;0.70;;;9.90;88.40;;;;;;4957962;29;20501;-73
2022/11/29 07:39:50;;;;;;;0.63;0.63;;;10.00;88.20;;;;;;4958648;29;20439;-72
2022/11/29 07:42:24;;;;;;;0.70;0.70;;;10.00;88.10;;;;;;4957331;29;21032;-72
2022/11/29 07:45:03;;;;;;;0.70;0.70;;;10.00;87.80;;;;;;4957432;29;20450;-72
2022/11/29 07:47:29;;;;;;;0.60;0.60;;;9.90;88.10;;;;;;4957521;29;20432;-73
2022/11/29 07:49:56;;;;;;;0.70;0.70;;;9.90;88.10;;;;;;4957418;29;20458;-71
2022/11/29 07:52:23;;;;;;;0.67;0.67;;;9.90;88.10;;;;;;4957435;29;20475;-72
2022/11/29 07:54:50;;;;;;;0.60;0.60;;;9.90;88.30;;;;;;4957289;29;20447;-72
2022/11/29 07:57:16;;;;;;;0.60;0.60;;;9.90;88.30;;;;;;4957365;29;20487;-72
2022/11/29 07:59:43;;;;;;;0.70;0.70;;;9.90;88.40;;;;;;4957308;29;20458;-71
2022/11/29 08:02:11;;;;;;;0.80;0.80;;;9.90;88.10;;;;;;4956900;29;20483;-72
2022/11/29 08:04:41;;;;;;;0.60;0.60;;;9.90;88.30;;;;;;4957099;29;20462;-71
2022/11/29 08:07:08;;;;;;;0.70;0.70;;;9.90;88.30;;;;;;4957030;29;20455;-72
2022/11/29 08:09:35;;;;;;;0.70;0.70;;;10.00;88.10;;;;;;4957616;29;20455;-72
2022/11/29 08:12:01;;;;;;;0.60;0.60;;;10.00;88.10;;;;;;4957230;29;20478;-72
2022/11/29 08:14:31;;;;;;;0.90;0.90;;;10.00;88.10;;;;;;4956978;29;20836;-72
2022/11/29 08:16:58;;;;;;;0.70;0.70;;;10.00;87.90;;;;;;4956916;29;20487;-71
2022/11/29 08:19:26;;;;;;;0.70;0.70;;;10.00;87.80;;;;;;4956308;28;20455;-72
2022/11/29 08:21:52;;;;;;;0.70;0.70;;;10.00;87.90;;;;;;4956953;29;20475;-72
2022/11/29 08:24:19;;;;;;;0.60;0.60;;;10.00;87.80;;;;;;4957026;29;20455;-72
2022/11/29 08:26:46;;;;;;;0.70;0.70;;;10.10;87.80;;;;;;4957017;29;20451;-73
2022/11/29 08:29:13;;;;;;;0.70;0.70;;;10.10;87.80;;;;;;4957023;29;20455;-74
2022/11/29 08:31:40;;;;;;;0.77;0.77;;;10.10;87.50;;;;;;4957100;29;20470;-73
2022/11/29 08:34:08;;;;;;;0.70;0.70;;;10.10;87.70;;;;;;4957232;29;20460;-73
2022/11/29 08:36:36;;;;;;;0.60;0.60;;;10.10;87.80;;;;;;4956891;29;20483;-73
2022/11/29 08:39:03;;;;;;;0.60;0.60;;;10.10;87.90;;;;;;4956335;29;20455;-73
2022/11/29 08:41:30;;;;;;;0.60;0.60;;;10.10;87.90;;;;;;4956733;29;20475;-74
2022/11/29 08:43:57;;;;;;;0.60;0.60;;;10.10;87.90;;;;;;4956930;29;20462;-73
2022/11/29 08:47:34;;;;;;;0.60;0.60;;;10.10;87.90;;;;;;4956801;29;20451;-73
2022/11/29 08:49:10;;;;;;;0.70;0.70;;;10.10;88.00;;;;;;4956441;29;20890;-73
2022/11/29 08:51:38;;;;;;;0.53;0.53;;;10.20;88.00;;;;;;4956538;29;20517;-73
2022/11/29 08:54:04;;;;;;;0.60;0.60;;;10.20;87.90;;;;;;4956386;29;20951;-73
2022/11/29 08:56:31;;;;;;;0.60;0.60;;;10.20;87.80;;;;;;4956373;29;20490;-73
2022/11/29 08:58:57;;;;;;;0.70;0.70;;;10.20;87.70;;;;;;4956302;29;20212;-73
2022/11/29 09:01:24;;;;;;;0.60;0.60;;;10.30;87.70;;;;;;4956470;29;20479;-72
2022/11/29 09:04:01;;;;;;;0.70;0.70;;;10.30;87.60;;;;;;4956531;29;20454;-74
2022/11/29 09:06:29;;;;;;;0.70;0.70;;;10.20;87.60;;;;;;4956841;29;20434;-72
2022/11/29 09:08:58;;;;;;;0.90;0.70;;;10.20;87.60;;;;;;4956296;29;20825;-74
2022/11/29 09:11:27;;;;;;;0.90;0.70;;;10.20;87.60;;;;;;4956307;29;20471;-73
2022/11/29 09:13:56;;;;;;;0.70;0.70;;;10.20;87.80;;;;;;4956401;29;20455;-73
2022/11/29 09:16:25;;;;;;;0.70;0.70;;;10.30;87.70;;;;;;4956112;29;20463;-73
2022/11/29 09:18:54;;;;;;;0.70;0.70;;;10.20;88.00;;;;;;4956184;29;20821;-73
2022/11/29 09:21:22;;;;;;;0.70;0.70;;;10.20;88.00;;;;;;4956255;29;20486;-73
2022/11/29 09:23:49;;;;;;;0.77;0.77;;;10.20;87.90;;;;;;4956151;29;20462;-74
2022/11/29 09:26:19;;;;;;;0.70;0.70;;;10.10;88.10;;;;;;4956357;29;20458;-73
2022/11/29 09:28:46;;;;;;;0.70;0.70;;;10.20;88.20;;;;;;4955923;29;20975;-73
2022/11/29 09:31:14;;;;;;;0.73;0.73;;;10.20;88.20;;;;;;4956201;29;20471;-74
2022/11/29 09:33:42;;;;;;;0.60;0.60;;;10.10;88.70;;;;;;4956681;29;20451;-73
2022/11/29 09:36:10;;;;;;;0.70;0.70;;;10.20;88.50;;;;;;4956210;29;20455;-73
2022/11/29 09:38:38;;;;;;;0.60;0.60;;;10.20;88.50;;;;;;4956024;29;20491;-73
2022/11/29 09:41:20;;;;;;;0.60;0.60;;;10.30;88.20;;;;;;4957088;29;20475;-73
2022/11/29 09:43:59;;;;;;;0.60;0.60;;;10.20;88.20;;;;;;4957088;29;20443;-73
2022/11/29 09:46:37;;;;;;;0.60;0.60;;;10.20;87.90;;;;;;4957070;29;20470;-73
2022/11/29 09:49:21;;;;;;;0.60;0.60;;;10.00;88.20;;;;;;4956753;29;20435;-74
2022/11/29 09:51:55;;;;;;;0.60;0.60;;;10.00;88.70;;;;;;4956765;29;20482;-73
2022/11/29 09:54:30;;;;;;;0.60;0.60;;;10.00;88.70;;;;;;4957022;29;20450;-73
2022/11/29 09:56:57;;;;;;;0.60;0.60;;;10.00;88.80;;;;;;4956662;29;20566;-74
2022/11/29 09:59:28;;;;;;;0.70;0.70;;;9.90;89.00;;;;;;4955812;29;20482;-74
2022/11/29 10:02:01;;;;;;;0.80;0.80;;;9.90;89.10;;;;;;4955562;29;20994;-72
2022/11/29 10:04:30;;;;;;;1.67;0.70;;;9.90;89.20;;;;;;4956015;29;20442;-73
2022/11/29 10:07:02;;;;;;;0.63;0.63;;;9.90;89.00;;;;;;4955690;29;20447;-73
2022/11/29 10:09:34;;;;;;;0.60;0.60;;;9.80;89.00;;;;;;4956094;29;20431;-72
2022/11/29 10:12:11;;;;;;;0.80;0.80;;;9.80;89.90;;;;;;4955294;29;20476;-72
2022/11/29 10:14:45;;;;;;;0.63;0.63;;;9.90;89.60;;;;;;4956422;29;20808;-73
2022/11/29 10:17:24;;;;;;;0.70;0.70;;;9.70;89.60;;;;;;4955165;29;20470;-71
2022/11/29 10:19:55;;;;;;;0.80;0.80;;;9.70;89.80;;;;;;4955035;29;20850;-71
2022/11/29 10:22:27;;;;;;;0.70;0.70;;;9.70;89.90;;;;;;4954909;29;20482;-72
2022/11/29 10:24:59;;;;;;;0.90;0.90;;;9.80;89.90;;;;;;4955385;29;20439;-73
2022/11/29 10:27:28;;;;;;;0.70;0.70;;;9.90;89.60;;;;;;4955709;29;20495;-73
2022/11/29 10:29:58;;;;;;;0.70;0.70;;;9.80;89.70;;;;;;4955425;29;20451;-72
2022/11/29 10:32:25;;;;;;;0.70;0.70;;;9.90;89.70;;;;;;4955627;29;20498;-73
2022/11/29 10:34:52;;;;;;;0.70;0.70;;;9.90;90.00;;;;;;4954916;29;20981;-73
2022/11/29 10:37:21;;;;;;;0.80;0.80;;;10.00;89.60;;;;;;4955200;29;20511;-72
2022/11/29 10:39:51;;;;;;;0.90;0.90;;;10.00;89.00;;;;;;4955514;29;20803;-71
2022/11/29 10:45:12;;;;;;;0.77;0.77;;;10.00;89.00;;;;;;4958832;29;20800;-73
2022/11/29 10:47:39;;;;;;;0.80;0.80;;;10.10;89.00;;;;;;4958986;29;20435;-72
2022/11/29 10:50:07;;;;;;;0.83;0.80;;;10.10;88.80;;;;;;4958450;29;20969;-73
2022/11/29 10:52:34;;;;;;;0.80;0.80;;;10.10;88.80;;;;;;4958651;29;20478;-72
2022/11/29 10:55:02;;;;;;;0.80;0.80;;;10.00;88.70;;;;;;4958816;29;20534;-72
2022/11/29 10:57:28;;;;;;;0.80;0.80;;;9.90;88.80;;;;;;4958558;29;20486;-73
2022/11/29 11:00:00;;;;;;;0.70;0.70;;;9.90;88.90;;;;;;4958997;29;20974;-73
2022/11/29 11:02:29;;;;;;;0.80;0.80;;;9.90;88.90;;;;;;4958615;29;20487;-72
2022/11/29 11:04:56;;;;;;;0.90;0.90;;;9.90;89.20;;;;;;4959547;29;20454;-73
2022/11/29 11:07:25;;;;;;;0.90;0.90;;;9.90;89.30;;;;;;4958943;29;20798;-72
2022/11/29 11:09:55;;;;;;;0.90;0.90;;;10.00;89.30;;;;;;4958494;29;20451;-72
2022/11/29 11:12:25;;;;;;;0.87;0.87;;;10.00;89.30;;;;;;4958742;29;20561;-72
2022/11/29 11:15:12;;;;;;;0.80;0.80;;;10.00;89.30;;;;;;4959071;29;20427;-74
2022/11/29 11:17:41;;;;;;;0.77;0.77;;;10.10;89.30;;;;;;4958416;29;20990;-73
2022/11/29 11:20:21;;;;;;;0.90;0.90;;;10.10;88.70;;;;;;4959855;29;20943;-72
2022/11/29 11:22:58;;;;;;;0.90;0.90;;;10.10;88.70;;;;;;4959528;29;20539;-73
2022/11/29 11:25:28;;;;;;;0.90;0.90;;;10.10;89.00;;;;;;4960088;29;20463;-73
2022/11/29 11:27:56;;;;;;;0.73;0.73;;;10.10;89.30;;;;;;4959270;29;20431;-73
2022/11/29 11:30:25;;;;;;;0.70;0.70;;;10.00;89.30;;;;;;4958376;29;20954;-74
2022/11/29 11:33:18;;;;;;;0.60;0.60;;;10.10;89.30;;;;;;4958764;29;20965;-73
2022/11/29 11:35:59;;;;;;;0.80;0.80;;;10.20;89.20;;;;;;4959600;29;20540;-74
2022/11/29 11:38:26;;;;;;;0.80;0.80;;;10.20;89.00;;;;;;4959354;29;20467;-72
2022/11/29 11:41:03;;;;;;;0.93;0.77;;;10.20;88.70;;;;;;4959199;29;20471;-73
2022/11/29 11:43:29;;;;;;;0.77;0.77;;;10.30;88.80;;;;;;4958648;29;20894;-72
2022/11/29 11:45:56;;;;;;;0.80;0.80;;;10.30;88.70;;;;;;4959314;29;20863;-73
2022/11/29 11:48:25;;;;;;;0.70;0.70;;;10.30;88.50;;;;;;4959528;29;20478;-73
2022/11/29 11:50:55;;;;;;;0.77;0.77;;;10.40;88.40;;;;;;4958949;29;20471;-74
2022/11/29 11:53:25;;;;;;;0.80;0.80;;;10.40;88.40;;;;;;4957153;28;20524;-72
2022/11/29 11:56:00;;;;;;;0.70;0.70;;;10.40;88.40;;;;;;4958397;29;20451;-73
2022/11/29 11:58:29;;;;;;;0.80;0.80;;;10.20;88.80;;;;;;4958152;29;20475;-72
2022/11/29 12:00:57;;;;;;;0.70;0.70;;;10.30;88.50;;;;;;4957884;29;20478;-72
2022/11/29 12:03:35;;;;;;;0.70;0.70;;;10.20;88.70;;;;;;4957882;29;20443;-73
2022/11/29 12:06:24;;;;;;;0.80;0.80;;;10.00;88.80;;;;;;4958257;29;20442;-74
2022/11/29 12:08:55;;;;;;;1.00;1.00;;;10.00;89.40;;;;;;4958921;29;20434;-73
2022/11/29 12:11:23;;;;;;;0.80;0.80;;;9.90;89.90;;;;;;4958899;29;20471;-73
2022/11/29 12:13:55;;;;;;;0.70;0.70;;;10.00;89.70;;;;;;4958344;29;20455;-74
2022/11/29 12:16:28;;;;;;;0.83;0.83;;;10.10;89.40;;;;;;4958671;29;20435;-74
2022/11/29 12:19:02;;;;;;;0.90;0.90;;;10.10;89.20;;;;;;4958072;29;20469;-73
2022/11/29 12:21:34;;;;;;;0.70;0.70;;;10.00;89.30;;;;;;4958417;29;20467;-74
2022/11/29 12:24:08;;;;;;;0.80;0.80;;;10.00;89.40;;;;;;4957729;29;20435;-73
2022/11/29 12:26:39;;;;;;;0.70;0.70;;;10.00;89.50;;;;;;4957458;29;20440;-73
2022/11/29 12:29:12;;;;;;;0.70;0.70;;;9.80;89.80;;;;;;4957612;29;20908;-74
2022/11/29 12:31:53;;;;;;;0.90;0.90;;;9.80;90.30;;;;;;4957458;29;20859;-74
2022/11/29 12:34:34;;;;;;;0.70;0.70;;;9.80;90.00;;;;;;4957891;29;20467;-73
2022/11/29 12:37:10;;;;;;;0.70;0.70;;;9.70;90.10;;;;;;4957658;29;20810;-73
2022/11/29 12:39:57;;;;;;;0.70;0.70;;;9.70;90.40;;;;;;4957378;29;20478;-74
2022/11/29 12:42:42;;;;;;;0.70;0.70;;;9.70;90.30;;;;;;4957289;29;20485;-73
2022/11/29 12:45:30;;;;;;;0.73;0.73;;;9.80;90.50;;;;;;4957532;29;20427;-74
2022/11/29 12:48:07;;;;;;;0.60;0.60;;;9.70;90.30;;;;;;4957601;29;20459;-74
2022/11/29 12:50:45;;;;;;;0.70;0.70;;;9.80;90.10;;;;;;4957286;29;20435;-74
2022/11/29 12:53:21;;;;;;;0.60;0.60;;;9.80;90.20;;;;;;4957013;29;20896;-72
2022/11/29 12:55:55;;;;;;;0.87;0.87;;;9.90;89.90;;;;;;4957394;29;20446;-74
2022/11/29 12:58:29;;;;;;;0.80;0.80;;;10.00;89.50;;;;;;4957083;29;20479;-73
2022/11/29 13:01:03;;;;;;;0.70;0.70;;;10.00;89.20;;;;;;4957161;29;20485;-74
2022/11/29 13:03:38;;;;;;;0.80;0.80;;;10.10;89.20;;;;;;4957666;29;20690;-73
2022/11/29 13:06:19;;;;;;;0.80;0.80;;;10.10;88.70;;;;;;4956393;29;20439;-74
2022/11/29 13:09:25;;;;;;;0.73;0.73;;;10.10;88.80;;;;;;4956408;29;20436;-73
2022/11/29 13:11:57;;;;;;;0.63;0.63;;;9.90;89.10;;;;;;4936424;29;20490;-73
2022/11/29 13:14:32;;;;;;;0.63;0.63;;;9.90;89.20;;;;;;4956730;29;20436;-73
2022/11/29 13:17:02;;;;;;;0.70;0.70;;;9.90;89.20;;;;;;4956371;29;20438;-74
2022/11/29 13:19:36;;;;;;;0.60;0.60;;;10.00;89.20;;;;;;4963836;29;20482;-73
2022/11/29 13:22:15;;;;;;;0.60;0.60;;;10.00;88.90;;;;;;4968103;29;20471;-73
2022/11/29 13:24:45;;;;;;;0.70;0.70;;;10.00;88.80;;;;;;4967779;29;20474;-73
2022/11/29 13:27:25;;;;;;;0.70;0.70;;;9.90;88.80;;;;;;4968828;29;20471;-76
2022/11/29 13:29:54;;;;;;;0.63;0.63;;;10.00;89.00;;;;;;4968282;29;20868;-72
2022/11/29 13:32:34;;;;;;;0.70;0.70;;;10.00;88.70;;;;;;4967822;29;20476;-72
2022/11/29 13:35:06;;;;;;;0.60;0.60;;;10.00;88.80;;;;;;4968782;29;20457;-72
2022/11/29 13:37:40;;;;;;;0.60;0.60;;;10.10;88.60;;;;;;4967129;29;20442;-72
2022/11/29 13:40:23;;;;;;;0.60;0.60;;;10.00;88.90;;;;;;4966687;29;20894;-72
2022/11/29 13:42:58;;;;;;;0.60;0.60;;;10.00;89.00;;;;;;4963221;29;20444;-72
2022/11/29 13:45:31;;;;;;;0.60;0.60;;;10.00;89.10;;;;;;4964028;29;20435;-72
2022/11/29 13:47:59;;;;;;;0.60;0.60;;;10.00;89.20;;;;;;4964640;29;20435;-73
2022/11/29 13:50:39;;;;;;;0.60;0.60;;;10.10;88.70;;;;;;4966091;29;20466;-73
2022/11/29 13:53:14;;;;;;;0.70;0.70;;;10.20;88.40;;;;;;4965173;29;20542;-73
2022/11/29 13:55:46;;;;;;;0.70;0.70;;;10.20;88.30;;;;;;4964007;29;20446;-72
2022/11/29 13:58:33;;;;;;;0.70;0.70;;;10.10;88.00;;;;;;4963808;29;20487;-73
2022/11/29 14:01:02;;;;;;;0.90;0.90;;;9.90;88.40;;;;;;4966274;29;20489;-73
2022/11/29 14:03:35;;;;;;;0.63;0.63;;;9.90;88.70;;;;;;4965886;29;20442;-72
2022/11/29 14:06:20;;;;;;;0.80;0.80;;;10.00;88.60;;;;;;4964161;29;20435;-73
2022/11/29 14:09:23;;;;;;;0.70;0.70;;;9.90;88.50;;;;;;4964171;29;20436;-73
2022/11/29 14:11:59;;;;;;;0.70;0.70;;;9.80;88.70;;;;;;4965056;29;20503;-73
2022/11/29 14:14:30;;;;;;;0.80;0.80;;;9.70;88.90;;;;;;4965195;29;20435;-73
2022/11/29 14:16:59;;;;;;;0.70;0.70;;;9.60;89.60;;;;;;4967282;28;20444;-73
2022/11/29 14:19:28;;;;;;;0.70;0.70;;;9.60;89.90;;;;;;4970548;29;20496;-73
2022/11/29 14:22:17;;;;;;;0.73;0.73;;;9.70;89.30;;;;;;4969686;29;20887;-72
2022/11/29 14:24:56;;;;;;;0.60;0.60;;;9.80;89.20;;;;;;4968632;29;20887;-72
2022/11/29 14:27:54;;;;;;;0.80;0.80;;;9.60;89.10;;;;;;4969082;29;20430;-72
2022/11/29 14:30:46;;;;;;;0.70;0.70;;;9.60;89.50;;;;;;4967692;29;20439;-73
2022/11/29 14:33:38;;;;;;;0.80;0.80;;;9.60;89.50;;;;;;4953923;29;20458;-73
2022/11/29 14:36:24;;;;;;;0.70;0.70;;;9.50;89.60;;;;;;4968558;29;20809;-73
2022/11/29 14:38:58;;;;;;;0.80;0.80;;;9.50;90.10;;;;;;4967639;29;20842;-72
2022/11/29 14:41:31;;;;;;;0.80;0.80;;;9.50;89.90;;;;;;4969358;29;20463;-73
2022/11/29 14:44:15;;;;;;;0.80;0.80;;;9.50;90.20;;;;;;4970944;29;20860;-73
2022/11/29 14:46:42;;;;;;;0.73;0.73;;;9.40;90.30;;;;;;4970918;29;20434;-73
2022/11/29 14:49:21;;;;;;;0.73;0.73;;;9.50;90.10;;;;;;4970879;29;20453;-75
2022/11/29 14:52:07;;;;;;;0.80;0.80;;;9.50;90.10;;;;;;4970821;29;20844;-73
2022/11/29 14:54:35;;;;;;;0.80;0.80;;;9.50;90.10;;;;;;4972070;29;20435;-74
2022/11/29 14:57:32;;;;;;;0.83;0.83;;;9.50;90.10;;;;;;4971484;29;20447;-74
2022/11/29 15:00:02;;;;;;;0.70;0.70;;;9.50;89.80;;;;;;4970663;29;20478;-74
2022/11/29 15:02:32;;;;;;;0.70;0.70;;;9.50;89.80;;;;;;4971675;29;21002;-74
2022/11/29 15:05:15;;;;;;;0.93;0.93;;;9.60;89.80;;;;;;4972214;29;20455;-74
2022/11/29 15:07:45;;;;;;;0.70;0.70;;;9.60;89.80;;;;;;4971290;29;20907;-74
2022/11/29 15:10:19;;;;;;;0.80;0.80;;;9.50;89.70;;;;;;4971244;29;20456;-74
2022/11/29 15:12:47;;;;;;;0.77;0.77;;;9.60;90.00;;;;;;4971415;29;20466;-74
2022/11/29 15:15:33;;;;;;;0.80;0.80;;;9.50;89.80;;;;;;4971631;29;20448;-74
2022/11/29 15:18:07;;;;;;;1.53;0.80;;;9.40;90.00;;;;;;4971592;29;20446;-74
2022/11/29 15:20:57;;;;;;;0.60;0.60;;;9.40;90.50;;;;;;4971052;29;20538;-75
2022/11/29 15:23:24;;;;;;;0.80;0.80;;;9.50;90.30;;;;;;4971179;29;20443;-74
2022/11/29 15:25:53;;;;;;;0.80;0.80;;;9.50;90.30;;;;;;4971342;29;20592;-74
2022/11/29 15:28:23;;;;;;;0.60;0.60;;;9.50;90.10;;;;;;4970753;28;20542;-74
2022/11/29 15:31:02;;;;;;;0.67;0.67;;;9.60;89.80;;;;;;4970685;29;20467;-74
2022/11/29 15:33:29;;;;;;;0.70;0.70;;;9.30;90.30;;;;;;4970997;29;20451;-74
2022/11/29 15:36:04;;;;;;;0.70;0.70;;;9.40;90.40;;;;;;4971341;29;20494;-74
2022/11/29 15:38:42;;;;;;;0.70;0.70;;;9.40;90.40;;;;;;4970787;29;20470;-74
2022/11/29 15:41:19;;;;;;;0.80;0.80;;;9.40;90.30;;;;;;4969875;29;20474;-74
2022/11/29 15:43:49;;;;;;;0.80;0.80;;;9.40;89.70;;;;;;4957989;29;20923;-75
2022/11/29 15:46:21;;;;;;;0.67;0.67;;;9.30;90.10;;;;;;4958208;29;20447;-74
2022/11/29 15:48:48;;;;;;;0.60;0.60;;;9.20;90.70;;;;;;4958445;29;20432;-74
2022/11/29 15:51:22;;;;;;;0.80;0.80;;;9.20;90.80;;;;;;4958180;29;20624;-73
2022/11/29 15:53:52;;;;;;;2.40;0.80;;;9.10;90.80;;;;;;4958565;29;20439;-74
2022/11/29 15:56:27;;;;;;;0.70;0.70;;;9.10;91.10;;;;;;4958772;29;20452;-74
2022/11/29 15:59:00;;;;;;;0.77;0.77;;;9.10;90.90;;;;;;4958455;29;20471;-74
2022/11/29 16:01:28;;;;;;;0.73;0.73;;;9.20;90.80;;;;;;4957868;29;20513;-74
2022/11/29 16:03:57;;;;;;;0.73;0.73;;;9.20;90.70;;;;;;4958074;29;20455;-73
2022/11/29 16:06:28;;;;;;;0.77;0.77;;;9.30;90.60;;;;;;4957936;29;20482;-73
2022/11/29 16:08:55;;;;;;;0.70;0.70;;;9.40;90.30;;;;;;4957476;29;20431;-73
2022/11/29 16:11:26;;;;;;;0.70;0.70;;;9.50;89.80;;;;;;4957630;29;20468;-73
2022/11/29 16:14:12;;;;;;;0.70;0.70;;;9.60;89.70;;;;;;4959177;29;20518;-73
2022/11/29 16:16:42;;;;;;;0.70;0.70;;;9.50;89.70;;;;;;4957487;29;20440;-73
2022/11/29 16:19:17;;;;;;;1.10;1.10;;;9.60;89.60;;;;;;4958268;29;20490;-73
2022/11/29 16:21:45;;;;;;;0.77;0.77;;;9.60;89.40;;;;;;4957586;29;20474;-73
2022/11/29 16:24:14;;;;;;;1.00;1.00;;;9.50;89.50;;;;;;4957528;29;20451;-71
2022/11/29 16:26:43;;;;;;;0.80;0.80;;;9.50;89.50;;;;;;4957590;29;20455;-71
2022/11/29 16:29:23;;;;;;;0.90;0.90;;;9.50;89.80;;;;;;4958052;29;20447;-73
2022/11/29 16:31:54;;;;;;;0.90;0.90;;;9.50;89.80;;;;;;4957504;29;20479;-73
2022/11/29 16:34:30;;;;;;;0.97;0.97;;;9.60;89.60;;;;;;4957573;29;20440;-72
2022/11/29 16:37:02;;;;;;;1.67;1.00;;;9.70;89.30;;;;;;4957828;29;20458;-72
2022/11/29 16:39:29;;;;;;;1.07;1.07;;;9.70;89.20;;;;;;4956898;28;20487;-72
2022/11/29 16:42:07;;;;;;;0.90;0.90;;;9.70;89.00;;;;;;4956943;29;20471;-72
2022/11/29 16:45:13;;;;;;;0.80;0.80;;;9.60;89.10;;;;;;4957175;29;20446;-72
2022/11/29 16:47:51;;;;;;;0.87;0.87;;;9.40;89.20;;;;;;4912885;29;20455;-73
2022/11/29 16:50:20;;;;;;;1.10;1.10;;;9.20;89.40;;;;;;4957963;29;20882;-73
2022/11/29 16:52:47;;;;;;;1.10;1.10;;;9.20;90.30;;;;;;4957826;29;20467;-73
2022/11/29 16:55:15;;;;;;;1.07;1.07;;;9.20;90.40;;;;;;4957673;29;20451;-73
2022/11/29 16:57:42;;;;;;;1.10;1.10;;;9.20;90.10;;;;;;4956916;29;20947;-73
2022/11/29 17:00:11;;;;;;;1.20;1.20;;;9.20;90.10;;;;;;4956011;29;20497;-72
2022/11/29 17:02:38;;;;;;;1.10;1.10;;;9.20;90.30;;;;;;4955647;29;20855;-72
2022/11/29 17:05:07;;;;;;;1.00;1.00;;;9.20;90.40;;;;;;4955934;29;20486;-72
2022/11/29 17:07:38;;;;;;;1.00;1.00;;;9.20;90.10;;;;;;4955861;29;20447;-71
2022/11/29 17:10:07;;;;;;;0.90;0.90;;;9.30;90.00;;;;;;4955855;29;20436;-73
2022/11/29 17:12:34;;;;;;;0.90;0.90;;;9.20;89.90;;;;;;4955603;29;20479;-72
2022/11/29 17:15:01;;;;;;;1.20;1.20;;;9.10;89.90;;;;;;4955748;29;20453;-72
2022/11/29 17:17:28;;;;;;;1.00;1.00;;;9.10;90.30;;;;;;4955861;29;20492;-72
2022/11/29 17:19:54;;;;;;;0.90;0.90;;;9.20;90.20;;;;;;4955606;29;20494;-71
2022/11/29 17:22:22;;;;;;;1.00;1.00;;;9.20;89.70;;;;;;4955681;29;20475;-73
2022/11/29 17:24:49;;;;;;;0.90;0.90;;;9.20;89.90;;;;;;4955828;29;20458;-72
2022/11/29 17:27:16;;;;;;;1.00;1.00;;;9.20;90.10;;;;;;4955774;29;20458;-72
2022/11/29 17:29:42;;;;;;;1.30;1.30;;;9.20;89.80;;;;;;4955341;29;20787;-72
2022/11/29 17:32:09;;;;;;;1.07;1.07;;;9.30;90.00;;;;;;4956082;29;20471;-73
2022/11/29 17:34:36;;;;;;;1.20;1.20;;;9.20;89.40;;;;;;4956053;29;20458;-72